Time;durP1;ratioP1;P1;durP2;ratioP2;P2;SDS_P1;SDS_P2;PMS_P1;PMS_P2;Temp;Humidity;BMP_temperature;BMP_pressure;BME280_temperature;BME280_humidity;BME280_pressure;Samples;Min_cycle;Max_cycle;Signal;HPM_P1;HPM_P2
2021/08/04 00:00:09;;;;;;;8.52;3.70;;;15.40;89.20;;;;;;5056368;28;20036;-78
2021/08/04 00:02:35;;;;;;;8.88;3.80;;;15.30;89.20;;;;;;5072945;28;20020;-78
2021/08/04 00:05:00;;;;;;;6.47;3.47;;;15.30;89.20;;;;;;5070918;28;20464;-78
2021/08/04 00:07:26;;;;;;;7.10;4.28;;;15.30;89.30;;;;;;5072925;28;20029;-78
2021/08/04 00:09:52;;;;;;;6.57;3.83;;;15.30;89.40;;;;;;5072469;28;20051;-76
2021/08/04 00:12:18;;;;;;;7.13;4.07;;;15.20;89.40;;;;;;5056423;28;20365;-76
2021/08/04 00:14:44;;;;;;;8.85;4.55;;;15.20;89.50;;;;;;5073049;28;20358;-76
2021/08/04 00:17:10;;;;;;;7.45;4.20;;;15.20;89.80;;;;;;5074108;28;20035;-76
2021/08/04 00:19:36;;;;;;;10.13;4.28;;;15.20;89.80;;;;;;5073760;28;20048;-76
2021/08/04 00:22:02;;;;;;;9.35;4.28;;;15.20;90.00;;;;;;5056076;28;20499;-76
2021/08/04 00:24:27;;;;;;;8.55;3.95;;;15.10;90.00;;;;;;5072736;28;20053;-76
2021/08/04 00:26:53;;;;;;;10.43;4.75;;;15.10;90.50;;;;;;5039737;28;20074;-76
2021/08/04 00:29:18;;;;;;;10.45;4.32;;;15.10;90.30;;;;;;5074036;28;20495;-76
2021/08/04 00:31:44;;;;;;;10.35;5.30;;;15.10;90.40;;;;;;5056048;28;20066;-76
2021/08/04 00:34:10;;;;;;;10.38;4.78;;;15.00;90.50;;;;;;5055988;28;20546;-76
2021/08/04 00:36:35;;;;;;;10.90;4.45;;;15.10;90.60;;;;;;5055680;28;20024;-76
2021/08/04 00:39:01;;;;;;;10.15;4.88;;;15.00;90.70;;;;;;5039108;28;20035;-76
2021/08/04 00:41:27;;;;;;;9.93;4.20;;;15.00;90.80;;;;;;5074065;28;20024;-76
2021/08/04 00:43:53;;;;;;;8.02;4.88;;;15.00;90.90;;;;;;5056066;28;20022;-76
2021/08/04 00:46:19;;;;;;;9.30;4.28;;;15.00;91.00;;;;;;5073706;28;20024;-76
2021/08/04 00:48:44;;;;;;;7.80;4.80;;;15.00;91.00;;;;;;5073831;28;20025;-78
2021/08/04 00:51:11;;;;;;;9.00;4.30;;;14.90;91.10;;;;;;5055553;28;20027;-78
2021/08/04 00:53:37;;;;;;;9.95;5.05;;;14.90;91.10;;;;;;5073444;28;20052;-78
2021/08/04 00:56:07;;;;;;;8.50;4.82;;;14.90;91.40;;;;;;5072158;28;20107;-78
2021/08/04 00:58:36;;;;;;;9.35;4.18;;;14.90;91.10;;;;;;5072090;28;20349;-78
2021/08/04 01:01:20;;;;;;;8.30;4.78;;;14.80;91.10;;;;;;5073450;28;20028;-78
2021/08/04 01:03:51;;;;;;;8.48;4.43;;;14.80;91.10;;;;;;5072148;28;20051;-78
2021/08/04 01:06:49;;;;;;;10.82;4.45;;;14.80;91.10;;;;;;5072084;28;20021;-78
2021/08/04 01:09:17;;;;;;;8.18;4.40;;;14.80;91.10;;;;;;5071558;28;20036;-78
2021/08/04 01:11:49;;;;;;;10.55;4.55;;;14.70;91.10;;;;;;5073251;28;20021;-78
2021/08/04 01:14:20;;;;;;;11.05;5.03;;;14.70;91.10;;;;;;5073285;28;20075;-78
2021/08/04 01:16:48;;;;;;;10.65;4.95;;;14.70;91.20;;;;;;5073424;28;20038;-78
2021/08/04 01:19:34;;;;;;;12.02;4.60;;;14.60;91.20;;;;;;5073133;28;20051;-78
2021/08/04 01:22:08;;;;;;;9.57;4.70;;;14.60;91.40;;;;;;5073271;28;20051;-78
2021/08/04 01:24:50;;;;;;;10.32;4.88;;;14.60;91.70;;;;;;5073160;28;20016;-78
2021/08/04 01:27:16;;;;;;;8.48;4.63;;;14.60;91.50;;;;;;5071938;28;20032;-78
2021/08/04 01:29:43;;;;;;;11.70;4.80;;;14.60;91.50;;;;;;5073043;28;20044;-78
2021/08/04 01:32:10;;;;;;;8.80;4.68;;;14.50;91.50;;;;;;5055333;28;20029;-78
2021/08/04 01:34:37;;;;;;;7.88;4.40;;;14.50;91.60;;;;;;5073130;28;20033;-78
2021/08/04 01:37:04;;;;;;;9.13;5.50;;;14.50;91.70;;;;;;5055098;28;20486;-78
2021/08/04 01:39:31;;;;;;;9.38;4.85;;;14.50;91.80;;;;;;5070912;28;20094;-77
2021/08/04 01:41:57;;;;;;;8.27;4.63;;;14.50;91.90;;;;;;5055632;28;20017;-77
2021/08/04 01:44:23;;;;;;;9.30;5.25;;;14.50;92.00;;;;;;5051430;28;20025;-78
2021/08/04 01:46:51;;;;;;;11.77;4.90;;;14.50;92.20;;;;;;5051042;28;20040;-78
2021/08/04 01:49:19;;;;;;;11.25;5.47;;;14.40;92.20;;;;;;5052595;28;20500;-78
2021/08/04 01:51:45;;;;;;;8.10;4.78;;;14.40;92.30;;;;;;5051604;28;20033;-78
2021/08/04 01:54:12;;;;;;;11.07;5.10;;;14.40;92.60;;;;;;5052680;28;20053;-78
2021/08/04 01:56:39;;;;;;;10.63;5.22;;;14.40;92.40;;;;;;5034814;28;20037;-78
2021/08/04 01:59:05;;;;;;;10.15;4.40;;;14.30;92.40;;;;;;5034844;28;20029;-78
2021/08/04 02:01:31;;;;;;;9.15;4.93;;;14.30;92.40;;;;;;5052508;28;20029;-78
2021/08/04 02:03:57;;;;;;;9.13;5.18;;;14.30;92.40;;;;;;5034716;28;20033;-78
2021/08/04 02:06:52;;;;;;;8.55;4.60;;;14.30;92.50;;;;;;5052551;28;20025;-78
2021/08/04 02:09:25;;;;;;;7.80;4.75;;;14.30;92.50;;;;;;5051212;28;20027;-77
2021/08/04 02:12:01;;;;;;;9.25;4.78;;;14.20;92.50;;;;;;5052576;28;20025;-76
2021/08/04 02:14:50;;;;;;;9.75;4.45;;;14.20;92.60;;;;;;5052644;28;20021;-76
2021/08/04 02:17:37;;;;;;;10.43;5.15;;;14.10;92.60;;;;;;5063149;28;20068;-76
2021/08/04 02:20:05;;;;;;;9.07;6.07;;;14.10;92.60;;;;;;5074578;28;20045;-76
2021/08/04 02:22:47;;;;;;;8.13;5.43;;;14.10;92.60;;;;;;5074455;28;20020;-76
2021/08/04 02:25:16;;;;;;;11.40;6.45;;;14.10;92.60;;;;;;5076086;28;20017;-76
2021/08/04 02:27:43;;;;;;;10.85;6.43;;;14.10;92.70;;;;;;5074840;28;20025;-76
2021/08/04 02:30:13;;;;;;;11.48;6.22;;;14.10;92.70;;;;;;5074719;28;20054;-76
2021/08/04 02:32:39;;;;;;;10.38;4.72;;;14.00;92.70;;;;;;5074619;28;20028;-76
2021/08/04 02:35:06;;;;;;;8.27;4.85;;;14.00;92.70;;;;;;5071467;28;20484;-77
2021/08/04 02:37:35;;;;;;;9.02;4.90;;;14.00;92.80;;;;;;5074448;28;20021;-78
2021/08/04 02:40:02;;;;;;;8.38;5.07;;;14.00;93.10;;;;;;5074122;28;20044;-78
2021/08/04 02:42:28;;;;;;;10.18;5.35;;;14.00;92.80;;;;;;5074761;28;20099;-78
2021/08/04 02:44:54;;;;;;;8.02;4.88;;;13.90;92.70;;;;;;5073711;28;20532;-77
2021/08/04 02:47:22;;;;;;;8.55;5.10;;;13.90;93.00;;;;;;5075487;28;20107;-77
2021/08/04 02:49:49;;;;;;;8.45;4.60;;;13.90;92.80;;;;;;5075238;28;20021;-77
2021/08/04 02:52:17;;;;;;;9.30;5.32;;;13.80;92.80;;;;;;5074104;28;20361;-77
2021/08/04 02:54:45;;;;;;;8.15;5.28;;;13.90;92.80;;;;;;5075436;28;20119;-77
2021/08/04 02:57:11;;;;;;;10.07;5.82;;;13.90;92.80;;;;;;5075195;28;20464;-77
2021/08/04 02:59:36;;;;;;;9.63;5.47;;;13.80;92.80;;;;;;5075275;28;20054;-77
2021/08/04 03:02:02;;;;;;;9.05;5.40;;;13.80;92.80;;;;;;5074299;28;20029;-77
2021/08/04 03:04:28;;;;;;;8.32;5.05;;;13.80;92.90;;;;;;5073839;28;20031;-77
2021/08/04 03:06:54;;;;;;;13.40;5.43;;;13.80;93.00;;;;;;5055269;28;20549;-77
2021/08/04 03:09:19;;;;;;;8.43;5.47;;;13.80;93.00;;;;;;5073687;28;20070;-77
2021/08/04 03:11:45;;;;;;;8.00;5.25;;;13.80;93.10;;;;;;5075098;28;20028;-77
2021/08/04 03:14:11;;;;;;;8.80;5.00;;;13.70;93.10;;;;;;5040306;28;20495;-77
2021/08/04 03:16:36;;;;;;;9.02;4.82;;;13.80;93.20;;;;;;5073803;28;20059;-77
2021/08/04 03:19:02;;;;;;;11.05;5.90;;;13.80;93.20;;;;;;5073870;28;20060;-77
2021/08/04 03:21:28;;;;;;;9.40;5.68;;;13.70;93.30;;;;;;5057290;28;20514;-77
2021/08/04 03:23:54;;;;;;;11.25;6.68;;;13.70;93.30;;;;;;5057078;28;20056;-77
2021/08/04 03:26:19;;;;;;;10.68;5.57;;;13.70;93.40;;;;;;5072623;28;20062;-76
2021/08/04 03:28:45;;;;;;;10.30;5.72;;;13.70;93.40;;;;;;5073661;28;20488;-76
2021/08/04 03:31:11;;;;;;;8.48;5.25;;;13.70;93.50;;;;;;5073906;28;20447;-77
2021/08/04 03:33:36;;;;;;;9.52;5.75;;;13.70;93.50;;;;;;5073597;28;20031;-77
2021/08/04 03:36:03;;;;;;;9.32;5.50;;;13.60;93.50;;;;;;5073458;28;20036;-77
2021/08/04 03:38:29;;;;;;;12.02;6.10;;;13.60;93.50;;;;;;5056733;28;20127;-77
2021/08/04 03:40:55;;;;;;;10.02;5.75;;;13.60;93.60;;;;;;5056709;28;20511;-77
2021/08/04 03:43:20;;;;;;;8.88;5.60;;;13.60;93.60;;;;;;5073338;28;20051;-77
2021/08/04 03:45:46;;;;;;;10.20;5.78;;;13.60;93.70;;;;;;5073403;28;20116;-77
2021/08/04 03:48:12;;;;;;;8.68;4.90;;;13.60;93.80;;;;;;5074460;28;20032;-77
2021/08/04 03:50:37;;;;;;;10.23;5.15;;;13.60;93.80;;;;;;5056671;28;20033;-77
2021/08/04 03:53:03;;;;;;;8.73;5.40;;;13.60;93.90;;;;;;5073163;28;20043;-77
2021/08/04 03:55:28;;;;;;;9.70;5.38;;;13.60;94.00;;;;;;5073189;28;20032;-77
2021/08/04 03:57:54;;;;;;;8.43;5.60;;;13.60;94.00;;;;;;5072982;28;20392;-77
2021/08/04 04:00:20;;;;;;;10.43;5.72;;;13.60;94.00;;;;;;5070332;28;20032;-77
2021/08/04 04:02:45;;;;;;;8.02;4.88;;;13.50;94.00;;;;;;5053062;28;20481;-77
2021/08/04 04:05:11;;;;;;;9.65;5.30;;;13.50;94.00;;;;;;5053046;28;20033;-77
2021/08/04 04:07:37;;;;;;;9.70;5.60;;;13.50;94.10;;;;;;5035500;28;20052;-76
2021/08/04 04:10:04;;;;;;;9.18;5.40;;;13.50;94.10;;;;;;5065490;28;20116;-76
2021/08/04 04:12:29;;;;;;;12.27;5.15;;;13.50;94.10;;;;;;5055326;28;20036;-76
2021/08/04 04:14:56;;;;;;;10.80;4.85;;;13.50;94.10;;;;;;5069263;28;20082;-76
2021/08/04 04:17:22;;;;;;;10.35;5.10;;;13.50;94.20;;;;;;5052229;28;20032;-76
2021/08/04 04:19:47;;;;;;;7.22;4.63;;;13.50;94.10;;;;;;5053669;28;20123;-77
2021/08/04 04:22:13;;;;;;;7.72;4.45;;;13.50;94.10;;;;;;5069280;28;20033;-77
2021/08/04 04:24:38;;;;;;;8.07;5.18;;;13.40;94.20;;;;;;5053755;28;20454;-77
2021/08/04 04:27:04;;;;;;;11.43;4.95;;;13.40;94.20;;;;;;5053873;28;20033;-77
2021/08/04 04:29:30;;;;;;;7.70;4.40;;;13.40;94.50;;;;;;5069310;28;20041;-76
2021/08/04 04:31:56;;;;;;;9.43;5.80;;;13.40;94.30;;;;;;5052676;28;20182;-76
2021/08/04 04:34:21;;;;;;;10.60;5.85;;;13.40;94.30;;;;;;5052491;28;20554;-76
2021/08/04 04:36:47;;;;;;;7.60;5.20;;;13.40;94.40;;;;;;5068972;28;20037;-76
2021/08/04 04:39:13;;;;;;;9.35;5.65;;;13.40;94.50;;;;;;5053287;28;20043;-76
2021/08/04 04:41:38;;;;;;;9.13;5.60;;;13.40;94.50;;;;;;5068924;28;20033;-76
2021/08/04 04:44:04;;;;;;;10.13;5.55;;;13.40;94.50;;;;;;5049917;28;20028;-76
2021/08/04 04:46:30;;;;;;;8.70;5.80;;;13.40;94.50;;;;;;5050488;28;20025;-76
2021/08/04 04:48:56;;;;;;;9.55;5.65;;;13.40;94.50;;;;;;5054021;28;20044;-76
2021/08/04 04:51:21;;;;;;;9.55;5.55;;;13.50;94.60;;;;;;5068642;28;20039;-76
2021/08/04 04:53:47;;;;;;;7.90;4.63;;;13.50;94.60;;;;;;5052113;28;20112;-76
2021/08/04 04:56:12;;;;;;;8.25;5.20;;;13.50;94.60;;;;;;5068940;28;20040;-76
2021/08/04 04:58:38;;;;;;;8.80;5.32;;;13.50;94.60;;;;;;5048782;28;20037;-76
2021/08/04 05:01:04;;;;;;;10.38;5.28;;;13.50;94.60;;;;;;5035435;28;20376;-76
2021/08/04 05:03:29;;;;;;;8.35;5.07;;;13.50;94.60;;;;;;5053584;28;20029;-76
2021/08/04 05:05:55;;;;;;;9.23;5.88;;;13.50;94.60;;;;;;5053143;28;20470;-76
2021/08/04 05:08:21;;;;;;;11.25;5.82;;;13.60;94.60;;;;;;5018943;28;20136;-77
2021/08/04 05:10:46;;;;;;;9.80;5.25;;;13.60;94.70;;;;;;5052400;28;20086;-77
2021/08/04 05:13:12;;;;;;;8.80;5.93;;;13.70;94.70;;;;;;5052108;28;20059;-77
2021/08/04 05:15:37;;;;;;;8.93;5.70;;;13.60;94.70;;;;;;5052012;28;20401;-76
2021/08/04 05:18:03;;;;;;;8.35;5.55;;;13.70;94.70;;;;;;5051817;28;20072;-76
2021/08/04 05:20:30;;;;;;;9.50;4.90;;;13.70;95.00;;;;;;5059447;28;20056;-76
2021/08/04 05:22:56;;;;;;;8.70;5.30;;;13.80;95.00;;;;;;5060742;28;20029;-76
2021/08/04 05:25:22;;;;;;;7.95;5.47;;;13.80;94.70;;;;;;5051587;28;20033;-77
2021/08/04 05:27:48;;;;;;;8.98;5.95;;;13.80;94.70;;;;;;5051719;28;20033;-77
2021/08/04 05:30:15;;;;;;;9.68;5.03;;;13.90;94.80;;;;;;5052872;28;20037;-77
2021/08/04 05:32:41;;;;;;;8.90;5.22;;;13.90;94.80;;;;;;5051655;28;20508;-77
2021/08/04 05:35:07;;;;;;;7.95;5.00;;;14.00;94.80;;;;;;5051447;28;20036;-77
2021/08/04 05:37:32;;;;;;;9.43;5.47;;;14.00;94.80;;;;;;5051638;28;20037;-76
2021/08/04 05:39:58;;;;;;;8.20;5.38;;;14.10;94.80;;;;;;5052826;28;20036;-76
2021/08/04 05:42:24;;;;;;;9.75;5.47;;;14.10;94.80;;;;;;5052879;28;20025;-77
2021/08/04 05:44:49;;;;;;;9.20;5.72;;;14.10;94.80;;;;;;5035022;28;20028;-77
2021/08/04 05:47:16;;;;;;;11.18;5.65;;;14.20;94.80;;;;;;5051671;28;20033;-76
2021/08/04 05:49:42;;;;;;;10.13;5.63;;;14.20;94.80;;;;;;5052139;28;20090;-77
2021/08/04 05:52:08;;;;;;;13.02;5.88;;;14.30;94.90;;;;;;5055352;28;20040;-77
2021/08/04 05:54:34;;;;;;;8.88;5.38;;;14.30;95.20;;;;;;5055371;28;20029;-77
2021/08/04 05:56:59;;;;;;;10.00;6.10;;;14.40;94.90;;;;;;5056547;28;20362;-77
2021/08/04 05:59:25;;;;;;;9.02;6.28;;;14.30;94.90;;;;;;5056955;28;20025;-77
2021/08/04 06:01:51;;;;;;;9.57;5.95;;;14.50;95.00;;;;;;5038806;28;20115;-77
2021/08/04 06:04:16;;;;;;;9.60;6.18;;;14.50;95.10;;;;;;5056633;28;20036;-77
2021/08/04 06:06:42;;;;;;;11.13;6.53;;;14.60;95.10;;;;;;5056823;28;20095;-77
2021/08/04 06:09:07;;;;;;;9.45;6.22;;;14.60;95.10;;;;;;5038528;28;20135;-77
2021/08/04 06:11:33;;;;;;;9.98;5.60;;;14.60;95.20;;;;;;5055160;28;20036;-77
2021/08/04 06:13:59;;;;;;;9.30;6.60;;;14.70;95.20;;;;;;5038510;28;20392;-76
2021/08/04 06:16:25;;;;;;;10.35;5.65;;;14.80;95.20;;;;;;5055014;28;20032;-77
2021/08/04 06:18:50;;;;;;;9.38;6.78;;;14.80;95.20;;;;;;5054981;28;20112;-77
2021/08/04 06:21:16;;;;;;;9.95;6.07;;;14.90;95.20;;;;;;5058185;28;20033;-76
2021/08/04 06:23:42;;;;;;;10.98;5.93;;;15.00;95.20;;;;;;5075159;28;20381;-76
2021/08/04 06:26:07;;;;;;;8.65;5.68;;;15.00;95.20;;;;;;5057718;28;20464;-76
2021/08/04 06:28:33;;;;;;;9.52;6.47;;;15.10;95.20;;;;;;5041399;28;20127;-77
2021/08/04 06:30:58;;;;;;;9.68;6.50;;;15.10;95.20;;;;;;5074661;28;20039;-77
2021/08/04 06:33:24;;;;;;;9.23;6.72;;;15.20;95.20;;;;;;5074721;28;20039;-77
2021/08/04 06:35:50;;;;;;;8.20;5.72;;;15.20;95.10;;;;;;5074321;28;20036;-77
2021/08/04 06:38:15;;;;;;;9.38;5.90;;;15.30;95.10;;;;;;5052846;28;20033;-77
2021/08/04 06:40:41;;;;;;;12.13;6.45;;;15.40;95.10;;;;;;5074859;28;20060;-76
2021/08/04 06:43:06;;;;;;;9.07;5.15;;;15.50;95.00;;;;;;5057544;28;20086;-78
2021/08/04 06:45:32;;;;;;;8.30;5.20;;;15.50;95.00;;;;;;5057781;28;20035;-77
2021/08/04 06:47:58;;;;;;;7.85;5.68;;;15.60;94.90;;;;;;5074271;28;20043;-77
2021/08/04 06:50:26;;;;;;;7.50;5.40;;;15.60;94.90;;;;;;5057591;28;20029;-77
2021/08/04 06:52:53;;;;;;;8.85;6.18;;;15.70;94.80;;;;;;5074290;28;20513;-77
2021/08/04 06:55:18;;;;;;;10.07;5.50;;;15.80;94.80;;;;;;5075697;28;20055;-77
2021/08/04 06:57:44;;;;;;;9.00;5.85;;;15.80;94.80;;;;;;5074168;28;20060;-77
2021/08/04 07:00:11;;;;;;;7.90;5.00;;;15.90;94.70;;;;;;5057491;28;20486;-77
2021/08/04 07:02:36;;;;;;;9.20;5.63;;;16.00;94.60;;;;;;5075260;28;20090;-77
2021/08/04 07:05:02;;;;;;;8.15;5.20;;;16.00;94.50;;;;;;5074192;28;20468;-77
2021/08/04 07:07:28;;;;;;;9.65;5.78;;;16.10;94.50;;;;;;5075337;28;20058;-77
2021/08/04 07:09:53;;;;;;;10.98;6.03;;;16.20;94.60;;;;;;5074890;28;20036;-77
2021/08/04 07:12:19;;;;;;;7.18;5.28;;;16.20;94.20;;;;;;5073932;28;20033;-77
2021/08/04 07:14:45;;;;;;;9.05;5.45;;;16.30;94.10;;;;;;5073694;28;20086;-78
2021/08/04 07:17:10;;;;;;;9.75;5.32;;;16.40;94.00;;;;;;5075235;28;20028;-77
2021/08/04 07:19:36;;;;;;;7.63;5.35;;;16.50;93.90;;;;;;5073736;28;20079;-77
2021/08/04 07:22:02;;;;;;;10.70;7.00;;;16.50;93.80;;;;;;5075572;28;20062;-77
2021/08/04 07:24:27;;;;;;;8.55;5.22;;;16.60;93.70;;;;;;5073791;28;20029;-76
2021/08/04 07:26:53;;;;;;;7.43;5.20;;;16.70;93.60;;;;;;5073738;28;20483;-76
2021/08/04 07:29:19;;;;;;;7.57;5.35;;;16.80;93.40;;;;;;5074932;28;20036;-77
2021/08/04 07:31:46;;;;;;;8.52;5.88;;;16.80;93.30;;;;;;5073768;28;20035;-77
2021/08/04 07:34:14;;;;;;;6.10;4.25;;;16.90;93.10;;;;;;5073508;28;20029;-78
2021/08/04 07:36:40;;;;;;;6.80;5.05;;;16.90;93.00;;;;;;5073706;28;20020;-77
2021/08/04 07:39:05;;;;;;;8.63;4.90;;;17.00;92.80;;;;;;5073429;28;20054;-77
2021/08/04 07:41:31;;;;;;;8.32;5.45;;;17.00;92.60;;;;;;5074728;28;20039;-77
2021/08/04 07:43:57;;;;;;;7.05;4.50;;;17.10;92.40;;;;;;5074587;28;20028;-78
2021/08/04 07:46:23;;;;;;;8.20;5.35;;;17.10;92.30;;;;;;5073301;28;20086;-77
2021/08/04 07:48:49;;;;;;;8.38;4.30;;;17.20;92.10;;;;;;5074511;28;20028;-77
2021/08/04 07:51:15;;;;;;;7.10;4.40;;;17.30;92.00;;;;;;5074724;28;20032;-79
2021/08/04 07:53:41;;;;;;;7.38;4.38;;;17.30;92.10;;;;;;5074845;28;20042;-79
2021/08/04 07:56:08;;;;;;;8.63;5.13;;;17.40;91.70;;;;;;5056585;28;20060;-79
2021/08/04 07:58:34;;;;;;;6.28;4.07;;;17.40;91.50;;;;;;5074372;28;20108;-79
2021/08/04 08:01:00;;;;;;;6.60;3.58;;;17.50;91.40;;;;;;5073277;28;20033;-79
2021/08/04 08:03:25;;;;;;;9.75;4.50;;;17.50;91.30;;;;;;5056385;28;20028;-79
2021/08/04 08:05:51;;;;;;;8.18;4.70;;;17.60;91.20;;;;;;5056405;28;20060;-79
2021/08/04 08:08:17;;;;;;;5.40;3.42;;;17.70;91.00;;;;;;5073101;28;20158;-79
2021/08/04 08:10:43;;;;;;;7.80;3.85;;;17.70;90.90;;;;;;5072862;28;20020;-79
2021/08/04 08:13:09;;;;;;;7.55;3.95;;;17.80;90.80;;;;;;5072516;28;20468;-79
2021/08/04 08:15:35;;;;;;;11.30;4.28;;;17.80;90.70;;;;;;5074068;28;20067;-79
2021/08/04 08:18:11;;;;;;;7.43;3.17;;;17.90;90.60;;;;;;5072671;28;20025;-79
2021/08/04 08:20:38;;;;;;;7.18;4.38;;;18.00;90.40;;;;;;5073803;28;20052;-79
2021/08/04 08:23:04;;;;;;;7.20;4.07;;;18.10;90.20;;;;;;5056525;28;20040;-79
2021/08/04 08:25:30;;;;;;;6.78;3.88;;;18.10;90.00;;;;;;5056341;28;20073;-79
2021/08/04 08:27:56;;;;;;;7.68;3.90;;;18.20;89.70;;;;;;5074111;28;20032;-80
2021/08/04 08:30:22;;;;;;;8.40;3.83;;;18.30;89.40;;;;;;5055985;28;20028;-80
2021/08/04 08:32:48;;;;;;;6.78;3.83;;;18.30;89.00;;;;;;5072847;28;20078;-79
2021/08/04 08:35:15;;;;;;;6.90;4.13;;;18.40;88.80;;;;;;5072423;28;20021;-78
2021/08/04 08:37:41;;;;;;;7.63;3.67;;;18.40;88.40;;;;;;5073707;28;20020;-79
2021/08/04 08:40:08;;;;;;;6.63;4.25;;;18.50;88.20;;;;;;5039209;28;20021;-79
2021/08/04 08:42:34;;;;;;;6.15;3.55;;;18.60;88.10;;;;;;5072322;28;20016;-79
2021/08/04 08:45:00;;;;;;;7.20;3.15;;;18.70;87.80;;;;;;5073540;28;20081;-79
2021/08/04 08:47:25;;;;;;;7.65;3.45;;;18.70;87.60;;;;;;5072525;28;20028;-80
2021/08/04 08:49:52;;;;;;;6.32;2.72;;;18.80;87.00;;;;;;5055502;28;20032;-80
2021/08/04 08:52:17;;;;;;;4.50;2.55;;;18.90;86.40;;;;;;5073488;28;20082;-79
2021/08/04 08:54:43;;;;;;;7.20;2.80;;;19.00;85.90;;;;;;5039104;28;20472;-79
2021/08/04 08:57:09;;;;;;;5.15;2.53;;;19.00;85.70;;;;;;5072594;28;20032;-80
2021/08/04 08:59:35;;;;;;;4.15;2.00;;;19.20;85.50;;;;;;5072826;28;20028;-80
2021/08/04 09:02:03;;;;;;;6.15;2.60;;;19.20;85.20;;;;;;5074061;28;20380;-80
2021/08/04 09:04:29;;;;;;;4.75;2.65;;;19.30;83.80;;;;;;5073783;28;20545;-80
2021/08/04 09:06:59;;;;;;;6.28;2.50;;;19.40;83.10;;;;;;5072224;28;20021;-79
2021/08/04 09:09:26;;;;;;;7.70;3.00;;;19.50;82.30;;;;;;5072287;28;20392;-79
2021/08/04 09:11:56;;;;;;;4.13;1.85;;;19.60;81.60;;;;;;5073596;28;20099;-80
2021/08/04 09:14:27;;;;;;;4.72;2.72;;;19.70;81.20;;;;;;5072969;28;20033;-78
2021/08/04 09:17:05;;;;;;;5.45;3.13;;;19.80;81.00;;;;;;5055305;28;20017;-77
2021/08/04 09:19:33;;;;;;;5.03;3.13;;;19.90;80.60;;;;;;5071704;28;20074;-79
2021/08/04 09:22:20;;;;;;;4.45;2.60;;;20.00;80.00;;;;;;5073440;28;20071;-79
2021/08/04 09:25:02;;;;;;;4.45;2.45;;;20.10;79.60;;;;;;5071425;28;20435;-78
2021/08/04 09:27:49;;;;;;;4.10;2.55;;;20.20;79.00;;;;;;5062369;28;20027;-77
2021/08/04 09:30:28;;;;;;;4.43;2.53;;;20.30;77.90;;;;;;5071807;28;20056;-79
2021/08/04 09:33:17;;;;;;;3.67;2.08;;;20.40;77.80;;;;;;5056919;28;20025;-79
2021/08/04 09:35:52;;;;;;;3.13;1.83;;;20.50;76.60;;;;;;5056977;28;20025;-79
2021/08/04 09:38:19;;;;;;;3.83;2.10;;;20.60;76.50;;;;;;5057445;28;20384;-80
2021/08/04 09:40:45;;;;;;;4.88;1.70;;;20.60;75.80;;;;;;5057126;28;20059;-77
2021/08/04 09:43:21;;;;;;;3.38;1.95;;;20.80;74.60;;;;;;5056905;28;20025;-81
2021/08/04 09:45:48;;;;;;;4.40;1.42;;;20.90;73.70;;;;;;5056085;28;20388;-79
2021/08/04 09:48:18;;;;;;;3.35;1.67;;;20.90;73.40;;;;;;5057335;28;20029;-81
2021/08/04 09:50:46;;;;;;;3.30;1.55;;;21.00;73.00;;;;;;5056317;28;20032;-79
2021/08/04 09:53:34;;;;;;;5.03;1.60;;;21.10;72.60;;;;;;5057222;28;20491;-80
2021/08/04 09:56:10;;;;;;;3.83;1.30;;;21.20;71.90;;;;;;5057495;28;20025;-78
2021/08/04 09:58:38;;;;;;;4.07;1.50;;;21.30;71.90;;;;;;5056985;28;20029;-80
2021/08/04 10:01:05;;;;;;;3.72;1.27;;;21.40;70.70;;;;;;5072730;28;20031;-80
2021/08/04 10:03:32;;;;;;;4.10;1.27;;;21.50;69.80;;;;;;5072180;28;20473;-78
2021/08/04 10:05:58;;;;;;;3.33;1.40;;;21.60;68.90;;;;;;5055292;28;20078;-79
2021/08/04 10:08:24;;;;;;;4.65;1.30;;;21.60;67.40;;;;;;5056412;28;20036;-78
2021/08/04 10:10:52;;;;;;;3.30;1.50;;;21.70;67.00;;;;;;5071992;28;20039;-77
2021/08/04 10:13:20;;;;;;;4.15;1.63;;;21.80;66.30;;;;;;5071820;28;20020;-79
2021/08/04 10:15:52;;;;;;;3.72;1.20;;;21.80;65.30;;;;;;5055401;28;20429;-80
2021/08/04 10:18:25;;;;;;;3.45;1.25;;;21.90;65.30;;;;;;5054959;28;20111;-80
2021/08/04 10:20:54;;;;;;;3.05;1.10;;;22.00;65.10;;;;;;5056197;28;20041;-79
2021/08/04 10:23:20;;;;;;;3.85;1.40;;;22.10;64.70;;;;;;5054888;28;20022;-78
2021/08/04 10:25:47;;;;;;;5.38;1.30;;;22.20;63.80;;;;;;5055032;28;20025;-79
2021/08/04 10:28:14;;;;;;;3.83;1.25;;;22.30;63.30;;;;;;5056353;28;20109;-78
2021/08/04 10:30:42;;;;;;;4.15;1.63;;;22.50;63.40;;;;;;5056666;28;20083;-79
2021/08/04 10:33:08;;;;;;;3.72;1.63;;;22.70;63.70;;;;;;5054923;28;20021;-79
2021/08/04 10:35:36;;;;;;;3.90;1.40;;;22.90;63.10;;;;;;5054926;28;20036;-80
2021/08/04 10:38:03;;;;;;;4.57;1.40;;;23.20;62.90;;;;;;5054753;28;20021;-77
2021/08/04 10:40:29;;;;;;;3.45;1.45;;;23.40;62.00;;;;;;5056371;28;20040;-80
2021/08/04 10:42:55;;;;;;;3.10;1.30;;;23.80;61.70;;;;;;5058760;28;20025;-80
2021/08/04 10:45:23;;;;;;;5.25;1.50;;;23.90;61.20;;;;;;5072156;28;20082;-81
2021/08/04 10:47:50;;;;;;;2.65;1.10;;;24.30;60.70;;;;;;5056087;28;20029;-77
2021/08/04 10:50:16;;;;;;;2.95;1.00;;;24.70;60.50;;;;;;5071248;28;20029;-79
2021/08/04 10:52:57;;;;;;;2.75;1.02;;;25.20;59.20;;;;;;5055754;28;20079;-79
2021/08/04 10:55:24;;;;;;;2.63;0.98;;;25.80;57.20;;;;;;5071166;28;20032;-81
2021/08/04 10:58:05;;;;;;;2.33;1.02;;;26.40;56.70;;;;;;5055560;28;20029;-79
2021/08/04 11:00:32;;;;;;;3.17;0.95;;;27.10;55.00;;;;;;5056275;28;20025;-77
2021/08/04 11:02:58;;;;;;;3.63;1.20;;;27.70;55.50;;;;;;5055114;28;20108;-80
2021/08/04 11:05:23;;;;;;;4.43;1.15;;;28.50;54.10;;;;;;5071043;28;20057;-81
2021/08/04 11:08:18;;;;;;;2.38;0.85;;;29.20;53.50;;;;;;5055622;28;20032;-80
2021/08/04 11:10:45;;;;;;;2.55;0.93;;;29.60;50.40;;;;;;5054164;28;20460;-80
2021/08/04 11:13:11;;;;;;;2.60;1.05;;;29.40;49.80;;;;;;5054370;28;20029;-78
2021/08/04 11:15:37;;;;;;;2.42;1.23;;;29.40;49.90;;;;;;5070932;28;20128;-79
2021/08/04 11:18:10;;;;;;;2.90;0.85;;;29.70;50.30;;;;;;5071387;28;20112;-81
2021/08/04 11:20:38;;;;;;;2.13;1.10;;;30.40;50.40;;;;;;5055322;28;20049;-80
2021/08/04 11:23:09;;;;;;;4.40;1.20;;;31.00;48.80;;;;;;5053958;28;20049;-82
2021/08/04 11:25:41;;;;;;;3.05;1.02;;;31.50;47.80;;;;;;5054062;28;20028;-82
2021/08/04 11:28:11;;;;;;;2.30;0.90;;;32.00;47.20;;;;;;5070854;28;20491;-80
2021/08/04 11:30:48;;;;;;;3.05;1.10;;;32.40;46.70;;;;;;5054060;28;20021;-79
2021/08/04 11:33:27;;;;;;;3.63;0.80;;;32.60;45.70;;;;;;5070407;28;20090;-81
2021/08/04 11:36:19;;;;;;;3.08;1.02;;;32.60;45.00;;;;;;5055455;28;20108;-80
2021/08/04 11:39:09;;;;;;;5.00;1.20;;;33.00;43.90;;;;;;5072574;28;20029;-83
2021/08/04 11:41:55;;;;;;;6.35;1.35;;;33.40;43.80;;;;;;5063929;28;20056;-81
2021/08/04 11:44:26;;;;;;;2.38;0.95;;;33.70;43.20;;;;;;5054212;28;20013;-79
2021/08/04 11:46:56;;;;;;;4.05;1.80;;;33.40;42.50;;;;;;5054939;28;20021;-82
2021/08/04 11:49:32;;;;;;;3.97;1.00;;;33.00;42.10;;;;;;5057161;28;20446;-81
2021/08/04 11:52:25;;;;;;;2.65;0.90;;;32.50;42.10;;;;;;5057822;28;20061;-79
2021/08/04 11:55:21;;;;;;;1.75;0.80;;;32.00;42.40;;;;;;5060971;28;20120;-81
2021/08/04 11:57:47;;;;;;;3.28;1.10;;;31.40;42.40;;;;;;5060034;28;20108;-82
2021/08/04 12:00:24;;;;;;;4.80;1.00;;;31.00;42.90;;;;;;5055450;28;20063;-81
2021/08/04 12:02:50;;;;;;;6.95;1.25;;;30.60;43.20;;;;;;5056886;28;20027;-80
2021/08/04 12:05:17;;;;;;;3.50;1.08;;;30.50;43.80;;;;;;5055490;28;20044;-80
2021/08/04 12:07:44;;;;;;;4.35;1.20;;;30.60;43.90;;;;;;5055125;28;20067;-82
2021/08/04 12:10:23;;;;;;;4.10;1.30;;;30.80;43.20;;;;;;5037009;28;20031;-78
2021/08/04 12:12:50;;;;;;;2.47;0.90;;;31.30;42.70;;;;;;5054525;28;20080;-80
2021/08/04 12:15:28;;;;;;;3.75;0.82;;;31.60;42.40;;;;;;5053799;28;20025;-83
2021/08/04 12:18:04;;;;;;;2.67;1.17;;;31.60;42.10;;;;;;5054912;28;20440;-82
2021/08/04 12:20:37;;;;;;;3.90;1.00;;;31.40;41.50;;;;;;5055961;28;20041;-81
2021/08/04 12:23:08;;;;;;;2.33;0.80;;;31.10;41.60;;;;;;5054590;28;20028;-82
2021/08/04 12:25:36;;;;;;;1.88;0.90;;;30.80;41.60;;;;;;5039130;28;20017;-81
2021/08/04 12:28:02;;;;;;;1.67;0.90;;;30.90;42.40;;;;;;5054111;28;20033;-82
2021/08/04 12:30:38;;;;;;;2.70;0.98;;;31.20;42.30;;;;;;5054986;28;20139;-83
2021/08/04 12:33:11;;;;;;;3.42;1.10;;;31.60;42.10;;;;;;5053382;28;20027;-81
2021/08/04 12:38:43;;;;;;;2.97;0.90;;;32.90;41.10;;;;;;5054963;28;20078;-80
2021/08/04 12:41:10;;;;;;;3.72;1.00;;;33.30;40.20;;;;;;5052445;28;20055;-80
2021/08/04 12:43:40;;;;;;;3.47;1.10;;;33.10;39.80;;;;;;5053965;28;20028;-83
2021/08/04 12:46:06;;;;;;;3.22;1.15;;;32.80;39.40;;;;;;5054163;28;20029;-81
2021/08/04 12:48:37;;;;;;;3.15;1.45;;;32.30;39.90;;;;;;5052751;28;20040;-81
2021/08/04 12:51:03;;;;;;;2.22;0.90;;;31.90;39.30;;;;;;5054094;28;20031;-80
2021/08/04 12:53:32;;;;;;;2.05;1.00;;;31.50;40.30;;;;;;5052360;28;20033;-81